Time;durP1;ratioP1;P1;durP2;ratioP2;P2;SDS_P1;SDS_P2;PMS_P1;PMS_P2;Temp;Humidity;BMP_temperature;BMP_pressure;BME280_temperature;BME280_humidity;BME280_pressure;Samples;Min_cycle;Max_cycle;Signal;HPM_P1;HPM_P2
2021/04/06 02:31:04;;;;;;;;;;;;;;;;;;;;;
2021/04/06 04:16:15;;;;;;;1999.90;999.90;;;2.60;99.90;;;;;;4826906;29;20066;-93
2021/04/06 04:19:19;;;;;;;1999.90;999.90;;;2.60;99.90;;;;;;4830239;29;20061;-94
2021/04/06 04:24:53;;;;;;;1999.90;999.90;;;2.50;99.90;;;;;;4789602;29;20055;-94
2021/04/06 04:27:31;;;;;;;1999.90;999.90;;;2.50;99.90;;;;;;4804711;29;20054;-94
2021/04/06 04:30:06;;;;;;;1999.90;999.90;;;2.50;99.90;;;;;;4827505;29;20066;-95
2021/04/06 04:32:46;;;;;;;1999.90;999.90;;;2.50;99.90;;;;;;4827556;29;20078;-94
2021/04/06 04:35:19;;;;;;;1999.90;999.90;;;2.50;99.90;;;;;;4827745;29;20091;-94
2021/04/06 04:38:00;;;;;;;1999.90;999.90;;;2.50;99.90;;;;;;4826482;29;20055;-94
2021/04/06 04:41:05;;;;;;;1999.90;999.90;;;2.50;99.90;;;;;;4827304;29;20077;-94
2021/04/06 04:44:00;;;;;;;1999.90;999.90;;;2.40;99.90;;;;;;4825995;29;20132;-95
2021/04/06 04:46:37;;;;;;;1999.90;999.90;;;2.30;99.90;;;;;;4826189;29;20065;-94
2021/04/06 04:49:12;;;;;;;1999.90;999.90;;;2.30;99.90;;;;;;4827292;29;20085;-96
2021/04/06 04:51:49;;;;;;;1999.90;999.90;;;2.40;99.90;;;;;;4826795;29;20088;-94
2021/04/06 04:54:27;;;;;;;1999.90;999.90;;;2.40;99.90;;;;;;4828569;29;20141;-93
2021/04/06 04:57:10;;;;;;;1999.90;999.90;;;2.40;99.90;;;;;;4826446;29;20598;-95
2021/04/06 04:59:45;;;;;;;1999.90;999.90;;;2.40;99.90;;;;;;4825882;29;20081;-93
2021/04/06 05:02:17;;;;;;;1999.90;999.90;;;2.40;99.90;;;;;;4826768;29;20058;-94
2021/04/06 05:04:47;;;;;;;1999.90;999.90;;;2.40;99.90;;;;;;4827301;29;20141;-94
2021/04/06 05:07:15;;;;;;;1999.90;999.90;;;2.30;99.90;;;;;;4826847;29;20641;-94
2021/04/06 05:09:42;;;;;;;1999.90;999.90;;;2.40;99.90;;;;;;4826290;29;20054;-94
2021/04/06 05:12:11;;;;;;;1999.90;999.90;;;2.30;99.90;;;;;;4825695;29;20067;-94
2021/04/06 05:14:42;;;;;;;1999.90;999.90;;;2.30;99.90;;;;;;4825734;29;20090;-95
2021/04/06 05:17:12;;;;;;;1999.90;999.90;;;2.40;99.90;;;;;;4826654;29;20050;-92
2021/04/06 05:19:39;;;;;;;1999.90;999.90;;;2.30;99.90;;;;;;4826240;29;20059;-94
2021/04/06 05:22:08;;;;;;;1999.90;999.90;;;2.40;99.90;;;;;;4825771;29;20058;-94
2021/04/06 05:24:36;;;;;;;1999.90;999.90;;;2.40;99.90;;;;;;4826475;29;20058;-94
2021/04/06 05:27:04;;;;;;;1999.90;999.90;;;2.40;99.90;;;;;;4826405;29;20050;-93
2021/04/06 05:29:32;;;;;;;1999.90;999.90;;;2.40;99.90;;;;;;4826165;29;20475;-94
2021/04/06 05:32:03;;;;;;;1999.90;999.90;;;2.40;99.90;;;;;;4826279;29;20078;-93
2021/04/06 05:34:32;;;;;;;1999.90;999.90;;;2.40;99.90;;;;;;4825972;29;20202;-93
2021/04/06 05:37:01;;;;;;;1999.90;999.90;;;2.40;99.90;;;;;;4826352;29;20057;-94
2021/04/06 05:39:30;;;;;;;1999.90;999.90;;;2.50;99.90;;;;;;4825820;29;20054;-95
2021/04/06 05:41:59;;;;;;;1999.90;999.90;;;2.50;99.90;;;;;;4828348;29;20054;-94
2021/04/06 05:44:30;;;;;;;1999.90;999.90;;;2.50;99.90;;;;;;4830215;29;20054;-95
2021/04/06 05:47:03;;;;;;;1999.90;999.90;;;2.50;99.90;;;;;;4829569;29;20118;-93
2021/04/06 05:49:32;;;;;;;1999.90;999.90;;;2.50;99.90;;;;;;4829769;29;20062;-94
2021/04/06 05:52:01;;;;;;;1999.90;999.90;;;2.50;99.90;;;;;;4831490;29;20065;-94
2021/04/06 05:54:33;;;;;;;1999.90;999.90;;;2.50;99.90;;;;;;4830412;29;20053;-93
2021/04/06 05:57:04;;;;;;;1999.90;999.90;;;2.50;99.90;;;;;;4829389;29;20483;-93
2021/04/06 05:59:45;;;;;;;1999.90;999.90;;;2.60;99.90;;;;;;4829413;29;20149;-94
2021/04/06 06:02:49;;;;;;;1999.90;999.90;;;2.60;99.90;;;;;;4829141;29;20054;-94
2021/04/06 06:05:38;;;;;;;1999.90;999.90;;;2.70;99.90;;;;;;4831122;29;20394;-94
2021/04/06 06:08:18;;;;;;;1999.90;999.90;;;2.70;99.90;;;;;;4830023;29;20081;-95
2021/04/06 06:11:21;;;;;;;1999.90;999.90;;;2.70;99.90;;;;;;4830601;29;20058;-95
2021/04/06 06:14:38;;;;;;;1999.90;999.90;;;2.60;99.90;;;;;;4830936;29;20093;-94
2021/04/06 06:17:20;;;;;;;1999.90;999.90;;;2.60;99.90;;;;;;4829032;29;20050;-94
2021/04/06 06:27:58;;;;;;;;;;;;;;;;;;;;;
2021/04/06 06:38:12;;;;;;;1999.90;999.90;;;2.60;99.90;;;;;;4799702;29;20115;-94
2021/04/06 06:49:20;;;;;;;1999.90;999.90;;;2.50;99.90;;;;;;4714321;30;20054;-95
2021/04/06 06:51:58;;;;;;;1999.90;999.90;;;2.50;99.90;;;;;;4680969;30;20065;-93
2021/04/06 07:02:46;;;;;;;1999.90;999.90;;;2.20;99.90;;;;;;4621225;30;20042;-96
2021/04/06 07:05:43;;;;;;;1999.90;999.90;;;2.20;99.90;;;;;;4678445;30;20166;-95
2021/04/06 07:11:58;;;;;;;1999.90;999.90;;;2.20;99.90;;;;;;4707317;30;20140;-95
2021/04/06 07:18:35;;;;;;;1999.90;999.90;;;2.20;99.90;;;;;;4692435;30;20042;-95
2021/04/06 08:46:53;;;;;;;1999.90;999.90;;;3.10;99.90;;;;;;1117575;23;20341;-94
2021/04/06 08:49:46;;;;;;;1999.90;999.90;;;3.00;99.90;;;;;;4862525;29;20562;-95
2021/04/06 08:52:17;;;;;;;1999.90;999.90;;;3.00;99.90;;;;;;4864531;29;20069;-94
2021/04/06 08:55:18;;;;;;;1999.90;999.90;;;3.00;99.90;;;;;;4867642;29;20064;-94
2021/04/06 08:58:14;;;;;;;1999.90;999.90;;;3.10;99.90;;;;;;4865754;29;20073;-95
2021/04/06 09:01:11;;;;;;;1999.90;999.90;;;3.20;99.90;;;;;;4863974;29;20064;-95
2021/04/06 09:09:51;;;;;;;1999.90;999.90;;;3.50;99.90;;;;;;4853384;29;20069;-95
2021/04/06 09:12:50;;;;;;;1999.90;999.90;;;3.60;99.90;;;;;;4863261;29;20455;-95
2021/04/06 09:15:52;;;;;;;1999.90;999.90;;;3.70;99.90;;;;;;4864391;29;20140;-94
2021/04/06 09:18:42;;;;;;;1999.90;999.90;;;3.90;99.90;;;;;;4867677;29;20473;-94
2021/04/06 09:21:41;;;;;;;1999.90;999.90;;;4.00;99.90;;;;;;4867394;29;20113;-95
2021/04/06 09:24:51;;;;;;;1999.90;999.90;;;4.20;99.90;;;;;;4868643;29;20421;-95
2021/04/06 09:28:17;;;;;;;1999.90;999.90;;;4.40;99.90;;;;;;4868823;29;20473;-96
2021/04/06 09:34:49;;;;;;;1999.90;999.90;;;4.80;99.90;;;;;;4856256;29;20057;-96
2021/04/06 09:38:05;;;;;;;1999.90;999.90;;;4.80;99.90;;;;;;4858302;29;20125;-96
2021/04/06 09:40:57;;;;;;;1999.90;999.90;;;4.70;99.90;;;;;;4866010;29;20086;-95
2021/04/06 09:43:50;;;;;;;1999.90;999.90;;;4.50;99.90;;;;;;4867756;29;20057;-94
2021/04/06 09:47:28;;;;;;;1999.90;999.90;;;4.30;99.90;;;;;;4859737;29;20064;-93
2021/04/06 10:18:17;;;;;;;1999.90;999.90;;;5.30;99.90;;;;;;5176635;23;20053;-95
2021/04/06 10:20:54;;;;;;;1999.90;999.90;;;5.30;99.90;;;;;;4866622;29;20144;-96
2021/04/06 10:23:58;;;;;;;1999.90;999.90;;;5.30;99.90;;;;;;4867825;29;20114;-96
2021/04/06 10:26:26;;;;;;;1999.90;999.90;;;5.50;99.90;;;;;;4866162;29;20476;-93
2021/04/06 10:29:10;;;;;;;1999.90;999.90;;;5.50;99.90;;;;;;4865733;29;20080;-92
2021/04/06 10:31:49;;;;;;;1999.90;999.90;;;5.40;99.90;;;;;;4864212;29;20065;-92
2021/04/06 10:34:18;;;;;;;1999.90;999.90;;;5.30;99.90;;;;;;4867366;29;20073;-93
2021/04/06 10:37:23;;;;;;;1999.90;999.90;;;5.00;99.90;;;;;;4864959;29;20053;-95
2021/04/06 10:54:53;;;;;;;1999.90;999.90;;;3.70;99.90;;;;;;4709015;30;20504;-95
2021/04/06 11:00:27;;;;;;;1999.90;999.90;;;3.90;99.90;;;;;;4808724;29;20059;-93
2021/04/06 11:03:12;;;;;;;1999.90;999.90;;;4.00;99.90;;;;;;4807755;29;20055;-94
2021/04/06 11:05:46;;;;;;;1999.90;999.90;;;4.20;99.90;;;;;;4808057;29;20066;-94
2021/04/06 11:08:41;;;;;;;1999.90;999.90;;;4.30;99.90;;;;;;4821354;29;20056;-95
2021/04/06 11:11:37;;;;;;;1999.90;999.90;;;4.40;99.90;;;;;;4841403;29;20053;-94
2021/04/06 11:14:19;;;;;;;1999.90;999.90;;;4.50;99.90;;;;;;4865139;29;20058;-95
2021/04/06 11:16:59;;;;;;;1999.90;999.90;;;4.60;99.90;;;;;;4864909;29;20140;-94
2021/04/06 11:19:29;;;;;;;1999.90;999.90;;;4.80;99.90;;;;;;4865331;29;20052;-94
2021/04/06 11:21:58;;;;;;;1999.90;999.90;;;4.90;99.90;;;;;;4864108;29;20136;-94
2021/04/06 11:24:28;;;;;;;1999.90;999.90;;;5.00;99.90;;;;;;4863914;29;20049;-93
2021/04/06 11:26:57;;;;;;;1999.90;999.90;;;5.10;99.90;;;;;;4864246;29;20113;-94
2021/04/06 11:29:26;;;;;;;1999.90;999.90;;;5.20;99.90;;;;;;4865355;29;20053;-95
2021/04/06 11:32:22;;;;;;;1999.90;999.90;;;5.30;99.90;;;;;;4865462;29;20058;-96
2021/04/06 11:34:50;;;;;;;1999.90;999.90;;;5.50;99.90;;;;;;4868210;29;20084;-96
2021/04/06 11:37:18;;;;;;;1999.90;999.90;;;5.60;99.90;;;;;;4868970;29;20058;-96
2021/04/06 11:39:52;;;;;;;1999.90;999.90;;;5.70;99.90;;;;;;4867121;29;20053;-95
2021/04/06 11:42:21;;;;;;;1999.90;999.90;;;5.50;99.90;;;;;;4865860;29;20049;-95
2021/04/06 11:44:48;;;;;;;1999.90;999.90;;;5.30;99.90;;;;;;4863966;29;20057;-93
2021/04/06 11:47:16;;;;;;;1999.90;999.90;;;5.20;99.90;;;;;;4863883;29;20132;-93
2021/04/06 12:04:18;;;;;;;1999.90;999.90;;;4.70;99.90;;;;;;4824583;29;20058;-96
2021/04/06 12:26:18;;;;;;;1999.90;999.90;;;5.60;99.90;;;;;;4782034;30;20087;-96
2021/04/06 12:29:48;;;;;;;1999.90;999.90;;;5.70;99.90;;;;;;4813111;29;20169;-96
2021/04/06 12:33:01;;;;;;;1999.90;999.90;;;5.80;99.90;;;;;;4826728;29;20061;-96
2021/04/06 13:03:14;;;;;;;1999.90;999.90;;;6.70;99.90;;;;;;4825719;29;20073;-94
2021/04/06 13:05:41;;;;;;;1999.90;999.90;;;6.80;99.90;;;;;;4828473;29;20080;-95
2021/04/06 13:40:58;;;;;;;1999.90;999.90;;;5.50;99.90;;;;;;4754231;30;20599;-95
2021/04/06 14:03:16;;;;;;;1999.90;999.90;;;5.20;99.90;;;;;;4744001;30;20194;-94
2021/04/06 14:09:34;;;;;;;1999.90;999.90;;;5.40;99.90;;;;;;4754043;30;20482;-94
2021/04/06 14:13:01;;;;;;;1999.90;999.90;;;5.70;99.90;;;;;;4757121;30;20555;-94
2021/04/06 14:23:17;;;;;;;1999.90;999.90;;;5.70;98.70;;;;;;4737442;30;20043;-94
2021/04/06 14:40:50;;;;;;;1999.90;999.90;;;6.10;99.90;;;;;;4721960;30;20057;-94
2021/04/06 14:43:34;;;;;;;1999.90;999.90;;;6.00;99.90;;;;;;4728423;30;20231;-96
2021/04/06 14:46:20;;;;;;;1999.90;999.90;;;6.00;99.40;;;;;;4729051;30;20060;-95
2021/04/06 14:49:15;;;;;;;1999.90;999.90;;;5.90;99.80;;;;;;4722215;30;20061;-95
2021/04/06 14:59:34;;;;;;;1999.90;999.90;;;6.40;97.40;;;;;;4709190;30;20057;-95
2021/04/06 19:49:36;;;;;;;;;;;;;;;;;;;;;
2021/04/06 19:57:12;;;;;;;1999.90;999.90;;;2.50;99.90;;;;;;4866816;29;20065;-95
2021/04/06 20:03:29;;;;;;;1999.90;999.90;;;2.50;99.90;;;;;;4767871;29;20056;-96
2021/04/06 20:09:36;;;;;;;1999.90;999.90;;;2.50;99.90;;;;;;4772837;30;20055;-96
2021/04/06 20:35:48;;;;;;;1999.90;999.90;;;2.50;99.90;;;;;;4669089;30;20306;-95
2021/04/06 20:39:16;;;;;;;1999.90;999.90;;;2.50;99.90;;;;;;4670090;30;20065;-96
2021/04/06 20:42:03;;;;;;;1999.90;999.90;;;2.40;99.90;;;;;;4736678;30;20141;-96
2021/04/06 20:44:51;;;;;;;1999.90;999.90;;;2.40;99.90;;;;;;4775496;29;20052;-94
2021/04/06 20:48:09;;;;;;;1999.90;999.90;;;2.40;99.90;;;;;;4810827;29;20058;-96
2021/04/06 20:51:38;;;;;;;1999.90;999.90;;;2.40;99.90;;;;;;4805467;29;20126;-95
2021/04/06 20:57:46;;;;;;;;;;;;;;;;;;;;;
2021/04/06 21:00:47;;;;;;;1999.90;999.90;;;2.40;99.90;;;;;;4786160;29;20077;-96
2021/04/06 21:12:23;;;;;;;1999.90;999.90;;;2.30;99.90;;;;;;4734288;30;20139;-95
2021/04/06 21:14:58;;;;;;;1999.90;999.90;;;2.40;99.90;;;;;;4770535;29;20058;-96
2021/04/06 21:17:29;;;;;;;1999.90;999.90;;;2.30;99.90;;;;;;4797828;29;20067;-96
2021/04/06 21:20:35;;;;;;;1999.90;999.90;;;2.30;99.90;;;;;;4863062;29;20095;-96
2021/04/06 21:23:22;;;;;;;1999.90;999.90;;;2.30;99.90;;;;;;4871038;29;20061;-95
2021/04/06 21:26:23;;;;;;;1999.90;999.90;;;2.30;99.90;;;;;;4868044;29;20054;-93
2021/04/06 21:29:12;;;;;;;1999.90;999.90;;;2.30;99.90;;;;;;4866862;29;20075;-94
2021/04/06 21:32:20;;;;;;;;;;;;;;;;;;;;;
2021/04/06 21:35:36;;;;;;;1999.90;999.90;;;2.30;99.90;;;;;;4866882;29;20141;-95
2021/04/06 21:38:13;;;;;;;1999.90;999.90;;;2.30;99.90;;;;;;4867372;29;20077;-94
2021/04/06 21:44:20;;;;;;;1999.90;999.90;;;2.30;99.90;;;;;;4866445;29;20113;-95
2021/04/06 21:46:53;;;;;;;1999.90;999.90;;;2.30;99.90;;;;;;4866956;29;20057;-94
2021/04/06 21:49:55;;;;;;;1999.90;999.90;;;2.30;99.90;;;;;;4866728;29;20069;-96
2021/04/06 21:52:58;;;;;;;1999.90;999.90;;;2.30;99.90;;;;;;4866766;29;20113;-95
2021/04/06 21:58:52;;;;;;;1999.90;999.90;;;2.30;99.90;;;;;;4864276;29;20070;-96
2021/04/06 22:01:52;;;;;;;1999.90;999.90;;;2.40;99.90;;;;;;4865853;29;20061;-94
2021/04/06 22:05:08;;;;;;;1999.90;999.90;;;2.30;99.90;;;;;;4865871;29;20076;-95
2021/04/06 22:07:54;;;;;;;1999.90;999.90;;;2.30;99.90;;;;;;4866407;29;20065;-95
2021/04/06 22:10:54;;;;;;;1999.90;999.90;;;2.30;99.90;;;;;;4865574;29;20049;-94
2021/04/06 22:13:43;;;;;;;1999.90;999.90;;;2.30;99.90;;;;;;4860966;29;20113;-96
2021/04/06 22:16:24;;;;;;;;;;;;;;;;;;;;;
2021/04/06 22:19:01;;;;;;;1999.90;999.90;;;2.30;99.90;;;;;;4865650;29;20050;-95
2021/04/06 22:21:32;;;;;;;1999.90;999.90;;;2.30;99.90;;;;;;4866441;29;20061;-95
2021/04/06 22:24:19;;;;;;;1999.90;999.90;;;2.30;99.90;;;;;;4865367;29;20145;-94
2021/04/06 22:26:50;;;;;;;1999.90;999.90;;;2.30;99.90;;;;;;4865986;29;20129;-95
2021/04/06 22:32:39;;;;;;;1999.90;999.90;;;2.30;99.90;;;;;;4861746;29;20220;-95
2021/04/06 22:35:48;;;;;;;1999.90;999.90;;;2.30;99.90;;;;;;4864689;29;20054;-94
2021/04/06 22:38:49;;;;;;;1999.90;999.90;;;2.30;99.90;;;;;;4865340;29;20076;-94
2021/04/06 22:41:40;;;;;;;1999.90;999.90;;;2.30;99.90;;;;;;4865325;29;20057;-95
2021/04/06 22:44:25;;;;;;;1999.90;999.90;;;2.30;99.90;;;;;;4864696;29;20118;-95
2021/04/06 22:47:03;;;;;;;1999.90;999.90;;;2.40;99.90;;;;;;4865012;29;20050;-95
2021/04/06 22:50:05;;;;;;;1999.90;999.90;;;2.40;99.90;;;;;;4864592;29;20050;-94
2021/04/06 22:52:53;;;;;;;1999.90;999.90;;;2.40;99.90;;;;;;4865583;29;20064;-94
2021/04/06 22:55:48;;;;;;;;;;;;;;;;;;;;;
2021/04/06 22:58:47;;;;;;;1999.90;999.90;;;2.30;99.90;;;;;;4865062;29;20061;-94
2021/04/06 23:01:39;;;;;;;1999.90;999.90;;;2.30;99.90;;;;;;4865252;29;20276;-94
2021/04/06 23:04:33;;;;;;;;;;;;;;;;;;;;;
2021/04/06 23:07:46;;;;;;;1999.90;999.90;;;2.20;99.90;;;;;;4808783;29;20086;-96
2021/04/06 23:10:37;;;;;;;1999.90;999.90;;;2.20;99.90;;;;;;4814605;29;20382;-95
2021/04/06 23:13:39;;;;;;;1999.90;999.90;;;2.10;99.90;;;;;;4809239;29;20071;-95
2021/04/06 23:16:46;;;;;;;1999.90;999.90;;;2.10;99.90;;;;;;4808783;29;20506;-95
2021/04/06 23:23:09;;;;;;;1999.90;999.90;;;2.10;99.90;;;;;;4793902;29;20062;-94
2021/04/06 23:26:17;;;;;;;1999.90;999.90;;;2.10;99.90;;;;;;4851959;29;20509;-95
2021/04/06 23:29:05;;;;;;;1999.90;999.90;;;2.00;99.90;;;;;;4862341;29;20049;-95
2021/04/06 23:32:01;;;;;;;1999.90;999.90;;;2.00;99.90;;;;;;4884159;29;20053;-95
2021/04/06 23:35:16;;;;;;;1999.90;999.90;;;2.00;99.90;;;;;;4865789;29;20053;-94
2021/04/06 23:38:13;;;;;;;1999.90;999.90;;;2.00;99.90;;;;;;4793948;30;20085;-95
2021/04/06 23:41:02;;;;;;;1999.90;999.90;;;2.00;99.90;;;;;;4777946;29;20179;-94
2021/04/06 23:43:43;;;;;;;1999.90;999.90;;;2.00;99.90;;;;;;4824908;29;20054;-95
2021/04/06 23:46:19;;;;;;;1999.90;999.90;;;2.00;99.90;;;;;;4826271;29;20078;-95
2021/04/06 23:49:18;;;;;;;1999.90;999.90;;;2.00;99.90;;;;;;4824897;29;20151;-94
2021/04/06 23:51:58;;;;;;;1999.90;999.90;;;2.00;99.90;;;;;;4825829;29;20422;-94
2021/04/06 23:54:37;;;;;;;1999.90;999.90;;;2.00;99.90;;;;;;4825340;29;20054;-95
2021/04/06 23:57:13;;;;;;;1999.90;999.90;;;1.90;99.90;;;;;;4826095;29;20412;-94
2021/04/06 23:59:42;;;;;;;1999.90;999.90;;;2.00;99.90;;;;;;4825834;29;20133;-96
